sensor_id;sensor_type;location;lat;lon;timestamp;pressure;altitude;pressure_sealevel;temperature;humidity
74270;BME280;62754;48.252;11.654;2023-02-28T00:01:19;96643.56;;;-2.54;68.68
74270;BME280;62754;48.252;11.654;2023-02-28T00:03:45;96635.31;;;-2.60;68.99
74270;BME280;62754;48.252;11.654;2023-02-28T00:06:11;96637.06;;;-2.65;69.25
74270;BME280;62754;48.252;11.654;2023-02-28T00:08:38;96631.03;;;-2.58;69.33
74270;BME280;62754;48.252;11.654;2023-02-28T00:11:06;96632.78;;;-2.62;69.44
74270;BME280;62754;48.252;11.654;2023-02-28T00:13:36;96630.94;;;-2.54;69.37
74270;BME280;62754;48.252;11.654;2023-02-28T00:16:05;96634.69;;;-2.73;69.47
74270;BME280;62754;48.252;11.654;2023-02-28T00:18:32;96633.84;;;-2.72;69.82
74270;BME280;62754;48.252;11.654;2023-02-28T00:20:58;96631.41;;;-2.76;70.32
74270;BME280;62754;48.252;11.654;2023-02-28T00:23:25;96626.50;;;-2.82;70.18
74270;BME280;62754;48.252;11.654;2023-02-28T00:25:51;96626.25;;;-2.70;69.97
74270;BME280;62754;48.252;11.654;2023-02-28T00:28:17;96623.88;;;-2.78;70.20
74270;BME280;62754;48.252;11.654;2023-02-28T00:30:43;96629.63;;;-2.71;69.95
74270;BME280;62754;48.252;11.654;2023-02-28T00:33:09;96627.28;;;-2.80;70.05
74270;BME280;62754;48.252;11.654;2023-02-28T00:35:35;96623.28;;;-2.91;70.63
74270;BME280;62754;48.252;11.654;2023-02-28T00:38:01;96620.78;;;-2.92;71.04
74270;BME280;62754;48.252;11.654;2023-02-28T00:40:27;96614.84;;;-2.90;70.63
74270;BME280;62754;48.252;11.654;2023-02-28T00:42:53;96619.97;;;-2.93;70.78
74270;BME280;62754;48.252;11.654;2023-02-28T00:45:18;96614.84;;;-2.90;70.91
74270;BME280;62754;48.252;11.654;2023-02-28T00:47:44;96620.03;;;-2.96;71.01
74270;BME280;62754;48.252;11.654;2023-02-28T00:50:10;96614.97;;;-2.96;70.81
74270;BME280;62754;48.252;11.654;2023-02-28T00:52:36;96618.31;;;-2.94;70.63
74270;BME280;62754;48.252;11.654;2023-02-28T00:55:02;96624.97;;;-2.91;70.73
74270;BME280;62754;48.252;11.654;2023-02-28T00:57:27;96619.16;;;-2.95;70.37
74270;BME280;62754;48.252;11.654;2023-02-28T00:59:53;96623.25;;;-2.89;70.58
74270;BME280;62754;48.252;11.654;2023-02-28T01:02:20;96622.63;;;-3.00;70.80
74270;BME280;62754;48.252;11.654;2023-02-28T01:04:46;96619.47;;;-3.11;71.17
74270;BME280;62754;48.252;11.654;2023-02-28T01:07:12;96622.75;;;-3.08;71.46
74270;BME280;62754;48.252;11.654;2023-02-28T01:09:38;96615.97;;;-3.03;71.35
74270;BME280;62754;48.252;11.654;2023-02-28T01:12:04;96625.34;;;-3.09;71.55
74270;BME280;62754;48.252;11.654;2023-02-28T01:14:30;96616.13;;;-3.12;71.64
74270;BME280;62754;48.252;11.654;2023-02-28T01:16:55;96616.03;;;-3.06;71.44
74270;BME280;62754;48.252;11.654;2023-02-28T01:19:21;96618.78;;;-3.19;71.92
74270;BME280;62754;48.252;11.654;2023-02-28T01:21:47;96616.31;;;-3.22;71.90
74270;BME280;62754;48.252;11.654;2023-02-28T01:24:12;96613.59;;;-3.12;71.63
74270;BME280;62754;48.252;11.654;2023-02-28T01:26:38;96614.50;;;-3.16;71.67
74270;BME280;62754;48.252;11.654;2023-02-28T01:29:04;96605.41;;;-3.23;71.94
74270;BME280;62754;48.252;11.654;2023-02-28T01:31:30;96612.97;;;-3.23;72.40
74270;BME280;62754;48.252;11.654;2023-02-28T01:33:55;96613.25;;;-3.40;72.70
74270;BME280;62754;48.252;11.654;2023-02-28T01:36:23;96601.41;;;-3.34;72.63
74270;BME280;62754;48.252;11.654;2023-02-28T01:38:50;96592.13;;;-3.31;72.70
74270;BME280;62754;48.252;11.654;2023-02-28T01:41:27;96595.47;;;-3.30;72.95
74270;BME280;62754;48.252;11.654;2023-02-28T01:46:25;96587.03;;;-3.28;72.65
74270;BME280;62754;48.252;11.654;2023-02-28T01:49:00;96597.72;;;-3.15;72.48
74270;BME280;62754;48.252;11.654;2023-02-28T01:51:46;96599.13;;;-3.47;73.14
74270;BME280;62754;48.252;11.654;2023-02-28T01:54:16;96590.63;;;-3.41;73.30
74270;BME280;62754;48.252;11.654;2023-02-28T01:56:47;96593.78;;;-3.28;73.16
74270;BME280;62754;48.252;11.654;2023-02-28T01:59:22;96593.94;;;-3.38;73.36
74270;BME280;62754;48.252;11.654;2023-02-28T02:01:49;96596.44;;;-3.38;73.34
74270;BME280;62754;48.252;11.654;2023-02-28T02:04:15;96594.69;;;-3.32;73.04
74270;BME280;62754;48.252;11.654;2023-02-28T02:06:43;96588.88;;;-3.36;73.35
74270;BME280;62754;48.252;11.654;2023-02-28T02:09:11;96589.16;;;-3.54;73.82
74270;BME280;62754;48.252;11.654;2023-02-28T02:11:40;96592.31;;;-3.42;73.77
74270;BME280;62754;48.252;11.654;2023-02-28T02:17:40;96594.13;;;-3.50;73.91
74270;BME280;62754;48.252;11.654;2023-02-28T02:20:27;96589.09;;;-3.48;73.96
74270;BME280;62754;48.252;11.654;2023-02-28T02:23:30;96590.91;;;-3.56;74.17
74270;BME280;62754;48.252;11.654;2023-02-28T02:41:51;96587.50;;;-3.54;74.40
74270;BME280;62754;48.252;11.654;2023-02-28T02:44:19;96585.88;;;-3.56;74.46
74270;BME280;62754;48.252;11.654;2023-02-28T02:46:48;96581.81;;;-3.66;74.92
74270;BME280;62754;48.252;11.654;2023-02-28T02:49:21;96580.00;;;-3.58;74.87
74270;BME280;62754;48.252;11.654;2023-02-28T02:51:49;96576.56;;;-3.54;74.68
74270;BME280;62754;48.252;11.654;2023-02-28T02:54:20;96576.81;;;-3.68;75.16
74270;BME280;62754;48.252;11.654;2023-02-28T02:56:49;96580.88;;;-3.59;75.14
74270;BME280;62754;48.252;11.654;2023-02-28T02:59:20;96584.31;;;-3.63;75.35
74270;BME280;62754;48.252;11.654;2023-02-28T03:01:59;96580.81;;;-3.56;75.27
74270;BME280;62754;48.252;11.654;2023-02-28T03:04:28;96572.50;;;-3.60;75.19
74270;BME280;62754;48.252;11.654;2023-02-28T03:06:56;96580.63;;;-3.44;75.04
74270;BME280;62754;48.252;11.654;2023-02-28T03:09:22;96581.47;;;-3.47;74.99
74270;BME280;62754;48.252;11.654;2023-02-28T03:11:49;96575.78;;;-3.56;75.41
74270;BME280;62754;48.252;11.654;2023-02-28T03:20:31;96581.59;;;-3.53;75.29
74270;BME280;62754;48.252;11.654;2023-02-28T03:22:51;96577.28;;;-3.46;75.40
74270;BME280;62754;48.252;11.654;2023-02-28T03:31:05;96571.47;;;-3.50;76.05
74270;BME280;62754;48.252;11.654;2023-02-28T03:33:38;96569.94;;;-3.58;76.17
74270;BME280;62754;48.252;11.654;2023-02-28T03:36:09;96575.88;;;-3.62;76.54
74270;BME280;62754;48.252;11.654;2023-02-28T03:38:48;96575.66;;;-3.50;76.19
74270;BME280;62754;48.252;11.654;2023-02-28T03:41:19;96575.72;;;-3.53;76.55
74270;BME280;62754;48.252;11.654;2023-02-28T03:43:52;96578.06;;;-3.43;76.19
74270;BME280;62754;48.252;11.654;2023-02-28T03:46:22;96588.97;;;-3.42;75.87
74270;BME280;62754;48.252;11.654;2023-02-28T03:49:02;96588.03;;;-3.37;75.70
74270;BME280;62754;48.252;11.654;2023-02-28T03:51:30;96580.97;;;-3.18;75.81
74270;BME280;62754;48.252;11.654;2023-02-28T03:54:01;96585.09;;;-3.15;75.65
74270;BME280;62754;48.252;11.654;2023-02-28T03:56:38;96584.94;;;-3.06;75.24
74270;BME280;62754;48.252;11.654;2023-02-28T03:59:13;96581.63;;;-3.08;75.40
74270;BME280;62754;48.252;11.654;2023-02-28T04:01:44;96585.97;;;-3.16;75.46
74270;BME280;62754;48.252;11.654;2023-02-28T04:04:12;96587.28;;;-2.97;75.27
74270;BME280;62754;48.252;11.654;2023-02-28T04:06:38;96585.66;;;-3.01;75.42
74270;BME280;62754;48.252;11.654;2023-02-28T04:09:05;96589.00;;;-2.99;75.84
74270;BME280;62754;48.252;11.654;2023-02-28T04:11:42;96586.41;;;-2.96;75.62
74270;BME280;62754;48.252;11.654;2023-02-28T04:14:10;96596.25;;;-2.82;75.36
74270;BME280;62754;48.252;11.654;2023-02-28T04:16:39;96591.06;;;-2.76;74.88
74270;BME280;62754;48.252;11.654;2023-02-28T04:19:06;96599.47;;;-2.76;74.40
74270;BME280;62754;48.252;11.654;2023-02-28T04:21:36;96596.88;;;-2.71;74.60
74270;BME280;62754;48.252;11.654;2023-02-28T04:24:03;96595.41;;;-2.83;74.79
74270;BME280;62754;48.252;11.654;2023-02-28T04:26:33;96600.16;;;-2.69;74.08
74270;BME280;62754;48.252;11.654;2023-02-28T04:29:00;96607.56;;;-2.62;73.96
74270;BME280;62754;48.252;11.654;2023-02-28T04:31:26;96612.72;;;-2.66;74.51
74270;BME280;62754;48.252;11.654;2023-02-28T04:33:52;96602.69;;;-2.69;74.06
74270;BME280;62754;48.252;11.654;2023-02-28T04:36:18;96601.69;;;-2.61;74.17
74270;BME280;62754;48.252;11.654;2023-02-28T04:38:44;96611.25;;;-2.78;74.42
74270;BME280;62754;48.252;11.654;2023-02-28T04:41:11;96602.59;;;-2.65;74.29
74270;BME280;62754;48.252;11.654;2023-02-28T04:43:37;96603.50;;;-2.67;74.31
74270;BME280;62754;48.252;11.654;2023-02-28T04:46:04;96612.06;;;-2.76;74.33
74270;BME280;62754;48.252;11.654;2023-02-28T04:48:32;96610.69;;;-2.51;73.55
74270;BME280;62754;48.252;11.654;2023-02-28T04:51:02;96615.06;;;-2.57;73.82
74270;BME280;62754;48.252;11.654;2023-02-28T04:53:29;96617.66;;;-2.60;74.13
74270;BME280;62754;48.252;11.654;2023-02-28T04:55:55;96610.81;;;-2.55;73.57
74270;BME280;62754;48.252;11.654;2023-02-28T04:58:21;96610.50;;;-2.40;73.25
74270;BME280;62754;48.252;11.654;2023-02-28T05:00:47;96611.47;;;-2.47;73.39
74270;BME280;62754;48.252;11.654;2023-02-28T05:03:13;96614.91;;;-2.50;73.82
74270;BME280;62754;48.252;11.654;2023-02-28T05:05:38;96617.47;;;-2.51;73.74
74270;BME280;62754;48.252;11.654;2023-02-28T05:08:04;96620.91;;;-2.55;73.87
74270;BME280;62754;48.252;11.654;2023-02-28T05:10:30;96618.25;;;-2.49;73.25
74270;BME280;62754;48.252;11.654;2023-02-28T05:12:56;96626.41;;;-2.38;72.49
74270;BME280;62754;48.252;11.654;2023-02-28T05:15:22;96634.03;;;-2.39;73.16
74270;BME280;62754;48.252;11.654;2023-02-28T05:17:48;96637.44;;;-2.42;72.95
74270;BME280;62754;48.252;11.654;2023-02-28T05:20:13;96637.44;;;-2.42;72.22
74270;BME280;62754;48.252;11.654;2023-02-28T05:22:40;96629.28;;;-2.55;72.41
74270;BME280;62754;48.252;11.654;2023-02-28T05:25:08;96637.56;;;-2.48;72.80
74270;BME280;62754;48.252;11.654;2023-02-28T05:27:34;96642.78;;;-2.56;72.88
74270;BME280;62754;48.252;11.654;2023-02-28T05:29:59;96640.78;;;-2.42;72.92
74270;BME280;62754;48.252;11.654;2023-02-28T05:32:25;96632.31;;;-2.39;72.53
74270;BME280;62754;48.252;11.654;2023-02-28T05:34:51;96637.44;;;-2.42;72.90
74270;BME280;62754;48.252;11.654;2023-02-28T05:37:17;96637.50;;;-2.44;72.74
74270;BME280;62754;48.252;11.654;2023-02-28T05:39:43;96630.31;;;-2.63;73.37
74270;BME280;62754;48.252;11.654;2023-02-28T05:42:08;96636.66;;;-2.44;72.66
74270;BME280;62754;48.252;11.654;2023-02-28T05:44:35;96638.00;;;-2.69;73.11
74270;BME280;62754;48.252;11.654;2023-02-28T05:47:00;96630.09;;;-2.53;72.61
74270;BME280;62754;48.252;11.654;2023-02-28T05:49:26;96641.88;;;-2.53;72.68
74270;BME280;62754;48.252;11.654;2023-02-28T05:51:52;96639.28;;;-2.50;72.51
74270;BME280;62754;48.252;11.654;2023-02-28T05:54:18;96646.91;;;-2.52;72.91
74270;BME280;62754;48.252;11.654;2023-02-28T05:56:43;96646.69;;;-2.43;72.18
74270;BME280;62754;48.252;11.654;2023-02-28T05:59:10;96641.91;;;-2.55;72.35
74270;BME280;62754;48.252;11.654;2023-02-28T06:01:45;96648.38;;;-2.42;72.16
74270;BME280;62754;48.252;11.654;2023-02-28T06:04:11;96646.69;;;-2.41;71.94
74270;BME280;62754;48.252;11.654;2023-02-28T06:06:37;96649.63;;;-2.62;72.88
74270;BME280;62754;48.252;11.654;2023-02-28T06:09:04;96650.22;;;-2.50;73.03
74270;BME280;62754;48.252;11.654;2023-02-28T06:11:29;96650.22;;;-2.50;72.51
74270;BME280;62754;48.252;11.654;2023-02-28T06:13:56;96649.63;;;-2.62;72.51
74270;BME280;62754;48.252;11.654;2023-02-28T06:16:23;96654.56;;;-2.56;72.53
74270;BME280;62754;48.252;11.654;2023-02-28T06:18:49;96652.72;;;-2.48;72.84
74270;BME280;62754;48.252;11.654;2023-02-28T06:21:15;96656.00;;;-2.45;72.02
74270;BME280;62754;48.252;11.654;2023-02-28T06:23:41;96664.31;;;-2.39;71.82
74270;BME280;62754;48.252;11.654;2023-02-28T06:26:07;96668.78;;;-2.52;72.10
74270;BME280;62754;48.252;11.654;2023-02-28T06:28:32;96679.41;;;-2.38;72.10
74270;BME280;62754;48.252;11.654;2023-02-28T06:30:58;96671.97;;;-2.44;72.18
74270;BME280;62754;48.252;11.654;2023-02-28T06:33:24;96670.16;;;-2.37;72.16
74270;BME280;62754;48.252;11.654;2023-02-28T06:35:50;96674.50;;;-2.44;72.15
74270;BME280;62754;48.252;11.654;2023-02-28T06:38:16;96686.06;;;-2.35;71.77
74270;BME280;62754;48.252;11.654;2023-02-28T06:40:42;96685.31;;;-2.39;71.86
74270;BME280;62754;48.252;11.654;2023-02-28T06:43:08;96682.94;;;-2.47;72.94
74270;BME280;62754;48.252;11.654;2023-02-28T06:45:33;96681.25;;;-2.46;72.80
74270;BME280;62754;48.252;11.654;2023-02-28T06:47:59;96687.78;;;-2.36;72.53
74270;BME280;62754;48.252;11.654;2023-02-28T06:50:25;96685.97;;;-2.31;71.94
74270;BME280;62754;48.252;11.654;2023-02-28T06:52:51;96681.94;;;-2.38;72.01
74270;BME280;62754;48.252;11.654;2023-02-28T06:55:17;96683.50;;;-2.32;72.12
74270;BME280;62754;48.252;11.654;2023-02-28T06:57:42;96691.22;;;-2.40;72.09
74270;BME280;62754;48.252;11.654;2023-02-28T07:00:09;96696.72;;;-2.21;71.51
74270;BME280;62754;48.252;11.654;2023-02-28T07:02:35;96699.06;;;-2.12;71.80
74270;BME280;62754;48.252;11.654;2023-02-28T07:05:02;96696.59;;;-2.15;71.72
74270;BME280;62754;48.252;11.654;2023-02-28T07:07:27;96698.19;;;-2.11;71.41
74270;BME280;62754;48.252;11.654;2023-02-28T07:09:53;96709.06;;;-2.08;71.21
74270;BME280;62754;48.252;11.654;2023-02-28T07:12:19;96707.28;;;-2.03;70.79
74270;BME280;62754;48.252;11.654;2023-02-28T07:14:45;96704.84;;;-2.07;71.12
74270;BME280;62754;48.252;11.654;2023-02-28T07:17:11;96706.91;;;-2.26;71.52
74270;BME280;62754;48.252;11.654;2023-02-28T07:19:37;96713.41;;;-2.14;71.35
74270;BME280;62754;48.252;11.654;2023-02-28T07:22:03;96706.34;;;-1.99;70.70
74270;BME280;62754;48.252;11.654;2023-02-28T07:24:29;96708.19;;;-2.07;70.21
74270;BME280;62754;48.252;11.654;2023-02-28T07:26:56;96700.31;;;-1.92;70.39
74270;BME280;62754;48.252;11.654;2023-02-28T07:29:21;96696.59;;;-1.77;69.62
74270;BME280;62754;48.252;11.654;2023-02-28T07:31:47;96704.91;;;-1.72;69.26
74270;BME280;62754;48.252;11.654;2023-02-28T07:34:13;96705.25;;;-1.85;70.80
74270;BME280;62754;48.252;11.654;2023-02-28T07:36:39;96708.50;;;-1.45;69.01
74270;BME280;62754;48.252;11.654;2023-02-28T07:39:05;96700.00;;;-1.42;68.44
74270;BME280;62754;48.252;11.654;2023-02-28T07:41:31;96700.00;;;-1.42;68.35
74270;BME280;62754;48.252;11.654;2023-02-28T07:43:56;96707.16;;;-1.60;68.37
74270;BME280;62754;48.252;11.654;2023-02-28T07:46:22;96715.59;;;-1.61;68.12
74270;BME280;62754;48.252;11.654;2023-02-28T07:48:48;96717.09;;;-1.52;68.23
74270;BME280;62754;48.252;11.654;2023-02-28T07:51:14;96714.31;;;-1.41;67.69
74270;BME280;62754;48.252;11.654;2023-02-28T07:53:39;96707.06;;;-1.55;67.70
74270;BME280;62754;48.252;11.654;2023-02-28T07:56:06;96704.47;;;-1.52;68.46
74270;BME280;62754;48.252;11.654;2023-02-28T07:58:32;96710.13;;;-1.42;68.34
74270;BME280;62754;48.252;11.654;2023-02-28T08:01:05;96708.69;;;-1.53;68.49
74270;BME280;62754;48.252;11.654;2023-02-28T08:03:31;96704.13;;;-1.38;67.50
74270;BME280;62754;48.252;11.654;2023-02-28T08:05:56;96716.94;;;-1.45;68.08
74270;BME280;62754;48.252;11.654;2023-02-28T08:08:22;96720.22;;;-1.42;66.98
74270;BME280;62754;48.252;11.654;2023-02-28T08:10:48;96716.19;;;-1.86;68.22
74270;BME280;62754;48.252;11.654;2023-02-28T08:13:14;96719.56;;;-1.51;68.00
74270;BME280;62754;48.252;11.654;2023-02-28T08:15:41;96723.56;;;-1.40;68.14
74270;BME280;62754;48.252;11.654;2023-02-28T08:18:07;96723.09;;;-1.21;67.65
74270;BME280;62754;48.252;11.654;2023-02-28T08:20:32;96723.88;;;-1.19;68.07
74270;BME280;62754;48.252;11.654;2023-02-28T08:22:58;96722.09;;;-1.14;67.73
74270;BME280;62754;48.252;11.654;2023-02-28T08:25:24;96727.06;;;-1.11;67.40
74270;BME280;62754;48.252;11.654;2023-02-28T08:27:51;96728.75;;;-1.11;66.87
74270;BME280;62754;48.252;11.654;2023-02-28T08:30:17;96724.03;;;-1.25;66.89
74270;BME280;62754;48.252;11.654;2023-02-28T08:32:43;96728.88;;;-1.16;66.54
74270;BME280;62754;48.252;11.654;2023-02-28T08:35:09;96727.16;;;-1.15;66.18
74270;BME280;62754;48.252;11.654;2023-02-28T08:37:35;96726.34;;;-1.16;66.03
74270;BME280;62754;48.252;11.654;2023-02-28T08:40:01;96737.84;;;-1.04;66.25
74270;BME280;62754;48.252;11.654;2023-02-28T08:42:27;96730.31;;;-1.06;65.92
74270;BME280;62754;48.252;11.654;2023-02-28T08:44:52;96742.56;;;-0.89;66.10
74270;BME280;62754;48.252;11.654;2023-02-28T08:47:18;96743.16;;;-0.79;65.60
74270;BME280;62754;48.252;11.654;2023-02-28T08:49:44;96737.28;;;-0.49;64.54
74270;BME280;62754;48.252;11.654;2023-02-28T08:52:10;96740.78;;;-0.53;64.16
74270;BME280;62754;48.252;11.654;2023-02-28T08:54:36;96735.03;;;-0.27;64.06
74270;BME280;62754;48.252;11.654;2023-02-28T08:57:02;96743.31;;;-0.22;64.73
74270;BME280;62754;48.252;11.654;2023-02-28T08:59:29;96737.78;;;-0.06;64.05
74270;BME280;62754;48.252;11.654;2023-02-28T09:01:54;96740.50;;;0.18;62.84
74270;BME280;62754;48.252;11.654;2023-02-28T09:04:20;96739.34;;;0.28;62.16
74270;BME280;62754;48.252;11.654;2023-02-28T09:06:46;96746.66;;;0.09;63.03
74270;BME280;62754;48.252;11.654;2023-02-28T09:09:12;96744.53;;;0.53;62.35
74270;BME280;62754;48.252;11.654;2023-02-28T09:11:38;96745.03;;;0.36;61.82
74270;BME280;62754;48.252;11.654;2023-02-28T09:14:03;96741.81;;;0.31;61.77
74270;BME280;62754;48.252;11.654;2023-02-28T09:16:31;96752.97;;;0.53;61.70
74270;BME280;62754;48.252;11.654;2023-02-28T09:18:57;96752.25;;;0.48;61.76
74270;BME280;62754;48.252;11.654;2023-02-28T09:21:23;96757.72;;;0.62;61.83
74270;BME280;62754;48.252;11.654;2023-02-28T09:23:51;96751.53;;;0.72;60.87
74270;BME280;62754;48.252;11.654;2023-02-28T09:26:21;96754.06;;;0.44;61.79
74270;BME280;62754;48.252;11.654;2023-02-28T09:28:48;96759.00;;;0.49;61.56
74270;BME280;62754;48.252;11.654;2023-02-28T09:31:23;96757.81;;;0.31;61.64
74270;BME280;62754;48.252;11.654;2023-02-28T09:33:51;96764.84;;;0.51;60.99
74270;BME280;62754;48.252;11.654;2023-02-28T09:36:18;96765.41;;;0.61;61.02
74270;BME280;62754;48.252;11.654;2023-02-28T09:38:44;96773.78;;;0.63;61.59
74270;BME280;62754;48.252;11.654;2023-02-28T09:41:14;96776.16;;;0.95;60.73
74270;BME280;62754;48.252;11.654;2023-02-28T09:43:44;96781.97;;;0.72;61.46
74270;BME280;62754;48.252;11.654;2023-02-28T09:46:33;96783.06;;;0.91;60.11
74270;BME280;62754;48.252;11.654;2023-02-28T09:49:06;96786.31;;;0.95;60.45
74270;BME280;62754;48.252;11.654;2023-02-28T09:51:39;96778.16;;;0.85;59.53
74270;BME280;62754;48.252;11.654;2023-02-28T09:54:06;96775.66;;;1.36;58.77
74270;BME280;62754;48.252;11.654;2023-02-28T09:56:38;96788.75;;;1.51;58.68
74270;BME280;62754;48.252;11.654;2023-02-28T10:04:46;96792.78;;;1.56;58.62
74270;BME280;62754;48.252;11.654;2023-02-28T10:07:31;96789.75;;;1.45;58.54
74270;BME280;62754;48.252;11.654;2023-02-28T10:10:05;96794.38;;;1.59;58.09
74270;BME280;62754;48.252;11.654;2023-02-28T10:12:41;96798.44;;;1.64;58.68
74270;BME280;62754;48.252;11.654;2023-02-28T10:15:14;96797.34;;;1.71;58.01
74270;BME280;62754;48.252;11.654;2023-02-28T10:17:43;96782.13;;;2.18;56.77
74270;BME280;62754;48.252;11.654;2023-02-28T10:20:14;96783.94;;;2.16;56.03
74270;BME280;62754;48.252;11.654;2023-02-28T10:23:20;96783.91;;;1.68;56.49
74270;BME280;62754;48.252;11.654;2023-02-28T10:26:11;96787.44;;;1.64;56.97
74270;BME280;62754;48.252;11.654;2023-02-28T10:28:38;96782.53;;;2.07;57.52
74270;BME280;62754;48.252;11.654;2023-02-28T10:31:04;96784.78;;;2.83;54.70
74270;BME280;62754;48.252;11.654;2023-02-28T10:33:33;96786.22;;;3.93;51.85
74270;BME280;62754;48.252;11.654;2023-02-28T10:36:00;96775.19;;;3.92;52.51
74270;BME280;62754;48.252;11.654;2023-02-28T10:38:38;96785.56;;;4.08;52.00
74270;BME280;62754;48.252;11.654;2023-02-28T10:41:18;96783.81;;;4.28;50.55
74270;BME280;62754;48.252;11.654;2023-02-28T10:43:51;96785.28;;;3.55;52.11
74270;BME280;62754;48.252;11.654;2023-02-28T10:46:19;96794.66;;;2.69;53.47
74270;BME280;62754;48.252;11.654;2023-02-28T10:48:51;96797.63;;;2.58;54.51
74270;BME280;62754;48.252;11.654;2023-02-28T10:51:22;96797.78;;;2.54;54.39
74270;BME280;62754;48.252;11.654;2023-02-28T10:53:52;96796.00;;;2.32;54.81
74270;BME280;62754;48.252;11.654;2023-02-28T10:56:20;96800.88;;;2.83;54.87
74270;BME280;62754;48.252;11.654;2023-02-28T11:03:47;96795.91;;;4.05;51.84
74270;BME280;62754;48.252;11.654;2023-02-28T11:06:22;96796.09;;;4.00;50.89
74270;BME280;62754;48.252;11.654;2023-02-28T11:11:17;96794.88;;;3.48;52.02
74270;BME280;62754;48.252;11.654;2023-02-28T11:13:45;96796.72;;;3.03;52.76
74270;BME280;62754;48.252;11.654;2023-02-28T11:16:13;96799.75;;;2.69;53.78
74270;BME280;62754;48.252;11.654;2023-02-28T11:18:43;96808.03;;;2.74;54.20
74270;BME280;62754;48.252;11.654;2023-02-28T11:21:15;96805.41;;;2.75;54.43
74270;BME280;62754;48.252;11.654;2023-02-28T11:23:42;96802.66;;;2.81;54.91
74270;BME280;62754;48.252;11.654;2023-02-28T11:26:08;96799.25;;;3.66;53.22
74270;BME280;62754;48.252;11.654;2023-02-28T11:28:37;96794.13;;;4.25;51.17
74270;BME280;62754;48.252;11.654;2023-02-28T11:36:13;96776.09;;;6.39;45.96
74270;BME280;62754;48.252;11.654;2023-02-28T11:38:40;96778.34;;;6.61;45.12
74270;BME280;62754;48.252;11.654;2023-02-28T11:44:16;96780.44;;;5.54;46.84
74270;BME280;62754;48.252;11.654;2023-02-28T11:46:52;96774.50;;;5.71;46.09
74270;BME280;62754;48.252;11.654;2023-02-28T11:49:28;96773.94;;;5.64;46.67
74270;BME280;62754;48.252;11.654;2023-02-28T11:52:05;96766.06;;;5.69;46.45
74270;BME280;62754;48.252;11.654;2023-02-28T11:57:38;96763.72;;;4.77;47.24
74270;BME280;62754;48.252;11.654;2023-02-28T12:06:28;96761.53;;;4.69;48.97
74270;BME280;62754;48.252;11.654;2023-02-28T12:11:56;96758.97;;;5.22;47.55
74270;BME280;62754;48.252;11.654;2023-02-28T12:14:49;96761.31;;;5.27;46.56
74270;BME280;62754;48.252;11.654;2023-02-28T12:17:50;96765.88;;;5.03;48.35
74270;BME280;62754;48.252;11.654;2023-02-28T12:23:25;96751.94;;;6.12;45.48
74270;BME280;62754;48.252;11.654;2023-02-28T12:28:37;96745.19;;;7.05;45.13
74270;BME280;62754;48.252;11.654;2023-02-28T12:31:27;96748.84;;;7.01;44.07
74270;BME280;62754;48.252;11.654;2023-02-28T12:34:03;96750.44;;;7.33;42.53
74270;BME280;62754;48.252;11.654;2023-02-28T12:36:31;96753.81;;;7.63;43.33
74270;BME280;62754;48.252;11.654;2023-02-28T12:41:41;96745.97;;;6.29;44.46
74270;BME280;62754;48.252;11.654;2023-02-28T12:44:12;96736.88;;;6.54;44.46
74270;BME280;62754;48.252;11.654;2023-02-28T12:46:42;96741.75;;;6.59;44.09
74270;BME280;62754;48.252;11.654;2023-02-28T12:49:17;96733.97;;;7.37;43.86
74270;BME280;62754;48.252;11.654;2023-02-28T12:51:47;96732.97;;;7.10;43.38
74270;BME280;62754;48.252;11.654;2023-02-28T12:54:21;96732.19;;;7.68;42.72
74270;BME280;62754;48.252;11.654;2023-02-28T12:59:49;96725.25;;;8.12;41.96
74270;BME280;62754;48.252;11.654;2023-02-28T13:08:16;96721.59;;;8.44;40.56
74270;BME280;62754;48.252;11.654;2023-02-28T13:10:48;96721.63;;;9.37;39.34
74270;BME280;62754;48.252;11.654;2023-02-28T13:13:18;96713.47;;;9.31;37.87
74270;BME280;62754;48.252;11.654;2023-02-28T13:16:07;96719.44;;;9.19;38.46
74270;BME280;62754;48.252;11.654;2023-02-28T13:18:43;96715.72;;;9.87;36.25
74270;BME280;62754;48.252;11.654;2023-02-28T13:21:28;96721.94;;;10.83;34.82
74270;BME280;62754;48.252;11.654;2023-02-28T13:26:20;96712.00;;;11.13;34.25
74270;BME280;62754;48.252;11.654;2023-02-28T13:31:18;96718.63;;;11.63;33.62
74270;BME280;62754;48.252;11.654;2023-02-28T13:38:44;96726.34;;;11.17;34.38
74270;BME280;62754;48.252;11.654;2023-02-28T13:44:13;96720.25;;;9.84;36.52
74270;BME280;62754;48.252;11.654;2023-02-28T13:51:47;96718.28;;;7.86;41.06
74270;BME280;62754;48.252;11.654;2023-02-28T13:54:31;96720.75;;;8.15;42.07
74270;BME280;62754;48.252;11.654;2023-02-28T14:00:17;96719.13;;;8.96;39.08
74270;BME280;62754;48.252;11.654;2023-02-28T14:05:18;96720.22;;;8.39;41.05
74270;BME280;62754;48.252;11.654;2023-02-28T14:07:47;96732.56;;;8.60;40.04
74270;BME280;62754;48.252;11.654;2023-02-28T14:10:44;96720.59;;;8.74;39.95
74270;BME280;62754;48.252;11.654;2023-02-28T14:16:05;96724.31;;;8.55;40.63
74270;BME280;62754;48.252;11.654;2023-02-28T14:18:33;96720.16;;;8.94;40.34
74270;BME280;62754;48.252;11.654;2023-02-28T14:21:31;96718.22;;;8.30;40.40
74270;BME280;62754;48.252;11.654;2023-02-28T14:37:46;96726.69;;;7.74;42.31
74270;BME280;62754;48.252;11.654;2023-02-28T14:40:19;96720.34;;;7.65;41.46
74270;BME280;62754;48.252;11.654;2023-02-28T14:42:57;96716.78;;;6.94;43.65
74270;BME280;62754;48.252;11.654;2023-02-28T14:45:29;96722.75;;;6.16;45.00
74270;BME280;62754;48.252;11.654;2023-02-28T14:47:56;96717.44;;;6.19;45.93
74270;BME280;62754;48.252;11.654;2023-02-28T14:50:34;96727.06;;;6.47;45.06
74270;BME280;62754;48.252;11.654;2023-02-28T14:53:01;96707.66;;;6.58;44.93
74270;BME280;62754;48.252;11.654;2023-02-28T14:55:30;96709.53;;;7.16;43.79
74270;BME280;62754;48.252;11.654;2023-02-28T14:58:04;96710.81;;;7.09;43.91
74270;BME280;62754;48.252;11.654;2023-02-28T15:00:32;96710.53;;;7.43;43.54
74270;BME280;62754;48.252;11.654;2023-02-28T15:03:01;96713.03;;;7.59;43.36
74270;BME280;62754;48.252;11.654;2023-02-28T15:05:37;96708.69;;;7.45;43.00
74270;BME280;62754;48.252;11.654;2023-02-28T15:08:15;96710.59;;;7.42;43.34